In Rescue
 
Open Full Screen Window  High Contrast Mode
Wind Gusting 16 knots
11
May 13, 2021 10:38 AM CDT
Weather Information
Wind Direction
  210 °
Wind Speed
  11 kt (13 mph)
Wind Gust
  16 kt (18 mph)
Altimeter
30.24 in
Visibility
10 SM
Temperature
19° C
66° F
Dewpoint
00° C
32° F
Humidity
28%
1hr Rain Fall
00.00 in.
24hr Rain Fall
00.00 in.
Sky Condition
Clear
VFR

METAR KBJI 131538Z AUTO 21011G16KT 10SM CLR 19/00 A3024 RMK AO2 T01850000

FAA Disclaimer: The data displayed is for advisory purposes only and is not to be used for flight planning or operations.